sensor_id;sensor_type;location;lat;lon;timestamp;P1;durP1;ratioP1;P2;durP2;ratioP2
727;SDS011;347;48.780;9.158;2023-07-02T00:01:04;7.67;;;7.27;;
727;SDS011;347;48.780;9.158;2023-07-02T00:03:29;7.97;;;7.57;;
727;SDS011;347;48.780;9.158;2023-07-02T00:05:55;8.13;;;7.73;;
727;SDS011;347;48.780;9.158;2023-07-02T00:08:21;8.27;;;7.83;;
727;SDS011;347;48.780;9.158;2023-07-02T00:10:47;8.03;;;7.73;;
727;SDS011;347;48.780;9.158;2023-07-02T00:13:13;7.80;;;7.40;;
727;SDS011;347;48.780;9.158;2023-07-02T00:15:40;8.00;;;7.60;;
727;SDS011;347;48.780;9.158;2023-07-02T00:18:05;7.17;;;6.87;;
727;SDS011;347;48.780;9.158;2023-07-02T00:20:32;8.07;;;7.67;;
727;SDS011;347;48.780;9.158;2023-07-02T00:23:05;8.87;;;8.37;;
727;SDS011;347;48.780;9.158;2023-07-02T00:25:33;8.57;;;8.07;;
727;SDS011;347;48.780;9.158;2023-07-02T00:27:59;8.27;;;7.77;;
727;SDS011;347;48.780;9.158;2023-07-02T00:30:24;8.30;;;7.90;;
727;SDS011;347;48.780;9.158;2023-07-02T00:32:50;8.10;;;7.80;;
727;SDS011;347;48.780;9.158;2023-07-02T00:35:16;8.30;;;7.80;;
727;SDS011;347;48.780;9.158;2023-07-02T00:37:41;8.27;;;7.87;;
727;SDS011;347;48.780;9.158;2023-07-02T00:40:07;8.93;;;8.43;;
727;SDS011;347;48.780;9.158;2023-07-02T00:42:33;8.27;;;7.70;;
727;SDS011;347;48.780;9.158;2023-07-02T00:44:59;8.20;;;7.70;;
727;SDS011;347;48.780;9.158;2023-07-02T00:47:27;7.50;;;7.23;;
727;SDS011;347;48.780;9.158;2023-07-02T00:49:54;8.27;;;7.87;;
727;SDS011;347;48.780;9.158;2023-07-02T00:52:20;7.90;;;7.40;;
727;SDS011;347;48.780;9.158;2023-07-02T00:54:46;8.07;;;7.53;;
727;SDS011;347;48.780;9.158;2023-07-02T00:57:11;7.37;;;7.07;;
727;SDS011;347;48.780;9.158;2023-07-02T00:59:37;8.70;;;8.20;;
727;SDS011;347;48.780;9.158;2023-07-02T01:02:03;8.10;;;7.60;;
727;SDS011;347;48.780;9.158;2023-07-02T01:04:30;7.97;;;7.57;;
727;SDS011;347;48.780;9.158;2023-07-02T01:06:56;7.63;;;7.23;;
727;SDS011;347;48.780;9.158;2023-07-02T01:09:24;7.53;;;7.03;;
727;SDS011;347;48.780;9.158;2023-07-02T01:11:54;7.93;;;7.53;;
727;SDS011;347;48.780;9.158;2023-07-02T01:14:29;8.20;;;7.80;;
727;SDS011;347;48.780;9.158;2023-07-02T01:16:58;7.70;;;7.37;;
727;SDS011;347;48.780;9.158;2023-07-02T01:19:38;8.50;;;8.10;;
727;SDS011;347;48.780;9.158;2023-07-02T01:22:18;8.40;;;8.00;;
727;SDS011;347;48.780;9.158;2023-07-02T01:24:44;7.87;;;7.50;;
727;SDS011;347;48.780;9.158;2023-07-02T01:27:12;8.07;;;7.70;;
727;SDS011;347;48.780;9.158;2023-07-02T01:29:38;7.93;;;7.57;;
727;SDS011;347;48.780;9.158;2023-07-02T01:32:04;8.43;;;8.03;;
727;SDS011;347;48.780;9.158;2023-07-02T01:34:30;8.20;;;7.80;;
727;SDS011;347;48.780;9.158;2023-07-02T01:36:56;8.10;;;7.70;;
727;SDS011;347;48.780;9.158;2023-07-02T01:39:21;8.40;;;7.90;;
727;SDS011;347;48.780;9.158;2023-07-02T01:41:51;8.67;;;7.93;;
727;SDS011;347;48.780;9.158;2023-07-02T01:44:17;7.90;;;7.50;;
727;SDS011;347;48.780;9.158;2023-07-02T01:46:44;7.80;;;7.47;;
727;SDS011;347;48.780;9.158;2023-07-02T01:49:13;8.33;;;7.80;;
727;SDS011;347;48.780;9.158;2023-07-02T01:51:44;8.20;;;7.80;;
727;SDS011;347;48.780;9.158;2023-07-02T01:54:16;7.40;;;7.10;;
727;SDS011;347;48.780;9.158;2023-07-02T01:56:42;8.00;;;7.50;;
727;SDS011;347;48.780;9.158;2023-07-02T01:59:08;8.20;;;7.80;;
727;SDS011;347;48.780;9.158;2023-07-02T02:01:34;7.87;;;7.47;;
727;SDS011;347;48.780;9.158;2023-07-02T02:03:59;8.10;;;7.80;;
727;SDS011;347;48.780;9.158;2023-07-02T02:06:25;8.17;;;7.73;;
727;SDS011;347;48.780;9.158;2023-07-02T02:08:50;9.07;;;8.47;;
727;SDS011;347;48.780;9.158;2023-07-02T02:11:16;8.73;;;8.30;;
727;SDS011;347;48.780;9.158;2023-07-02T02:13:41;7.77;;;7.47;;
727;SDS011;347;48.780;9.158;2023-07-02T02:16:07;8.00;;;7.60;;
727;SDS011;347;48.780;9.158;2023-07-02T02:18:33;9.17;;;8.43;;
727;SDS011;347;48.780;9.158;2023-07-02T02:20:58;8.10;;;7.60;;
727;SDS011;347;48.780;9.158;2023-07-02T02:23:24;9.03;;;8.53;;
727;SDS011;347;48.780;9.158;2023-07-02T02:25:49;7.63;;;7.33;;
727;SDS011;347;48.780;9.158;2023-07-02T02:28:15;7.47;;;7.17;;
727;SDS011;347;48.780;9.158;2023-07-02T02:30:40;8.20;;;7.77;;
727;SDS011;347;48.780;9.158;2023-07-02T02:33:06;8.17;;;7.77;;
727;SDS011;347;48.780;9.158;2023-07-02T02:35:31;8.03;;;7.73;;
727;SDS011;347;48.780;9.158;2023-07-02T02:37:57;8.20;;;7.70;;
727;SDS011;347;48.780;9.158;2023-07-02T02:40:22;8.40;;;7.90;;
727;SDS011;347;48.780;9.158;2023-07-02T02:42:48;8.30;;;7.90;;
727;SDS011;347;48.780;9.158;2023-07-02T02:45:13;7.70;;;7.30;;
727;SDS011;347;48.780;9.158;2023-07-02T02:47:39;8.60;;;8.10;;
727;SDS011;347;48.780;9.158;2023-07-02T02:50:05;7.83;;;7.53;;
727;SDS011;347;48.780;9.158;2023-07-02T02:52:31;7.43;;;7.13;;
727;SDS011;347;48.780;9.158;2023-07-02T02:54:56;8.30;;;7.90;;
727;SDS011;347;48.780;9.158;2023-07-02T02:57:22;8.50;;;8.10;;
727;SDS011;347;48.780;9.158;2023-07-02T02:59:47;8.40;;;7.97;;
727;SDS011;347;48.780;9.158;2023-07-02T03:02:13;8.43;;;7.93;;
727;SDS011;347;48.780;9.158;2023-07-02T03:04:38;8.30;;;7.90;;
727;SDS011;347;48.780;9.158;2023-07-02T03:07:09;8.27;;;7.77;;
727;SDS011;347;48.780;9.158;2023-07-02T03:09:34;8.40;;;8.00;;
727;SDS011;347;48.780;9.158;2023-07-02T03:12:00;7.80;;;7.40;;
727;SDS011;347;48.780;9.158;2023-07-02T03:14:25;7.67;;;7.27;;
727;SDS011;347;48.780;9.158;2023-07-02T03:16:51;8.13;;;7.53;;
727;SDS011;347;48.780;9.158;2023-07-02T03:19:16;8.00;;;7.60;;
727;SDS011;347;48.780;9.158;2023-07-02T03:21:43;8.03;;;7.60;;
727;SDS011;347;48.780;9.158;2023-07-02T03:24:08;8.77;;;7.83;;
727;SDS011;347;48.780;9.158;2023-07-02T03:26:38;9.00;;;8.50;;
727;SDS011;347;48.780;9.158;2023-07-02T03:29:10;8.17;;;7.67;;
727;SDS011;347;48.780;9.158;2023-07-02T03:31:36;8.77;;;8.30;;
727;SDS011;347;48.780;9.158;2023-07-02T03:34:03;8.53;;;8.13;;
727;SDS011;347;48.780;9.158;2023-07-02T03:36:31;8.20;;;7.70;;
727;SDS011;347;48.780;9.158;2023-07-02T03:38:56;9.10;;;8.60;;
727;SDS011;347;48.780;9.158;2023-07-02T03:41:22;8.80;;;8.20;;
727;SDS011;347;48.780;9.158;2023-07-02T03:43:48;8.33;;;7.93;;
727;SDS011;347;48.780;9.158;2023-07-02T03:46:13;8.30;;;7.80;;
727;SDS011;347;48.780;9.158;2023-07-02T03:48:39;9.30;;;8.50;;
727;SDS011;347;48.780;9.158;2023-07-02T03:51:05;9.40;;;8.70;;
727;SDS011;347;48.780;9.158;2023-07-02T03:53:31;8.27;;;7.60;;
727;SDS011;347;48.780;9.158;2023-07-02T03:55:56;8.23;;;7.87;;
727;SDS011;347;48.780;9.158;2023-07-02T03:58:22;9.17;;;8.47;;
727;SDS011;347;48.780;9.158;2023-07-02T04:00:47;8.57;;;8.10;;
727;SDS011;347;48.780;9.158;2023-07-02T04:03:14;8.10;;;7.67;;
727;SDS011;347;48.780;9.158;2023-07-02T04:05:41;9.10;;;8.57;;
727;SDS011;347;48.780;9.158;2023-07-02T04:08:07;8.10;;;7.60;;
727;SDS011;347;48.780;9.158;2023-07-02T04:10:32;8.17;;;7.77;;
727;SDS011;347;48.780;9.158;2023-07-02T04:12:58;8.73;;;7.90;;
727;SDS011;347;48.780;9.158;2023-07-02T04:15:23;9.40;;;8.80;;
727;SDS011;347;48.780;9.158;2023-07-02T04:17:50;9.13;;;8.53;;
727;SDS011;347;48.780;9.158;2023-07-02T04:20:16;10.30;;;9.60;;
727;SDS011;347;48.780;9.158;2023-07-02T04:22:43;12.07;;;9.00;;
727;SDS011;347;48.780;9.158;2023-07-02T04:25:09;9.30;;;8.50;;
727;SDS011;347;48.780;9.158;2023-07-02T04:27:36;9.60;;;8.73;;
727;SDS011;347;48.780;9.158;2023-07-02T04:30:01;9.60;;;9.00;;
727;SDS011;347;48.780;9.158;2023-07-02T04:32:28;9.73;;;9.13;;
727;SDS011;347;48.780;9.158;2023-07-02T04:34:53;9.90;;;9.30;;
727;SDS011;347;48.780;9.158;2023-07-02T04:37:19;10.10;;;9.40;;
727;SDS011;347;48.780;9.158;2023-07-02T04:39:47;9.70;;;9.10;;
727;SDS011;347;48.780;9.158;2023-07-02T04:42:12;9.83;;;9.17;;
727;SDS011;347;48.780;9.158;2023-07-02T04:44:39;10.73;;;9.83;;
727;SDS011;347;48.780;9.158;2023-07-02T04:47:08;11.67;;;10.57;;
727;SDS011;347;48.780;9.158;2023-07-02T04:49:34;10.20;;;9.50;;
727;SDS011;347;48.780;9.158;2023-07-02T04:51:59;10.30;;;9.70;;
727;SDS011;347;48.780;9.158;2023-07-02T04:54:25;9.57;;;8.97;;
727;SDS011;347;48.780;9.158;2023-07-02T04:56:50;10.13;;;9.43;;
727;SDS011;347;48.780;9.158;2023-07-02T04:59:16;10.00;;;9.30;;
727;SDS011;347;48.780;9.158;2023-07-02T05:01:42;9.30;;;8.70;;
727;SDS011;347;48.780;9.158;2023-07-02T05:04:09;10.30;;;9.53;;
727;SDS011;347;48.780;9.158;2023-07-02T05:06:36;10.50;;;9.70;;
727;SDS011;347;48.780;9.158;2023-07-02T05:09:02;9.03;;;8.50;;
727;SDS011;347;48.780;9.158;2023-07-02T05:11:27;9.10;;;8.50;;
727;SDS011;347;48.780;9.158;2023-07-02T05:13:53;9.60;;;9.10;;
727;SDS011;347;48.780;9.158;2023-07-02T05:16:18;8.90;;;8.30;;
727;SDS011;347;48.780;9.158;2023-07-02T05:18:44;8.47;;;8.03;;
727;SDS011;347;48.780;9.158;2023-07-02T05:21:09;9.20;;;8.50;;
727;SDS011;347;48.780;9.158;2023-07-02T05:23:35;9.33;;;8.63;;
727;SDS011;347;48.780;9.158;2023-07-02T05:26:01;9.30;;;8.80;;
727;SDS011;347;48.780;9.158;2023-07-02T05:28:27;9.47;;;8.87;;
727;SDS011;347;48.780;9.158;2023-07-02T05:30:52;10.10;;;9.40;;
727;SDS011;347;48.780;9.158;2023-07-02T05:33:18;9.37;;;8.80;;
727;SDS011;347;48.780;9.158;2023-07-02T05:35:43;9.93;;;9.33;;
727;SDS011;347;48.780;9.158;2023-07-02T05:38:11;10.67;;;9.60;;
727;SDS011;347;48.780;9.158;2023-07-02T05:40:36;10.70;;;9.87;;
727;SDS011;347;48.780;9.158;2023-07-02T05:43:02;9.37;;;8.60;;
727;SDS011;347;48.780;9.158;2023-07-02T05:45:28;9.30;;;8.70;;
727;SDS011;347;48.780;9.158;2023-07-02T05:47:54;10.60;;;9.87;;
727;SDS011;347;48.780;9.158;2023-07-02T05:50:19;10.23;;;9.60;;
727;SDS011;347;48.780;9.158;2023-07-02T05:52:45;9.80;;;9.30;;
727;SDS011;347;48.780;9.158;2023-07-02T05:55:10;10.90;;;10.20;;
727;SDS011;347;48.780;9.158;2023-07-02T05:57:37;10.03;;;9.33;;
727;SDS011;347;48.780;9.158;2023-07-02T06:00:04;11.50;;;10.63;;
727;SDS011;347;48.780;9.158;2023-07-02T06:02:31;11.30;;;10.50;;
727;SDS011;347;48.780;9.158;2023-07-02T06:04:57;11.33;;;10.43;;
727;SDS011;347;48.780;9.158;2023-07-02T06:07:26;11.90;;;10.97;;
727;SDS011;347;48.780;9.158;2023-07-02T06:09:51;11.27;;;10.57;;
727;SDS011;347;48.780;9.158;2023-07-02T06:12:17;12.47;;;11.57;;
727;SDS011;347;48.780;9.158;2023-07-02T06:14:42;11.37;;;10.57;;
727;SDS011;347;48.780;9.158;2023-07-02T06:17:08;12.40;;;11.40;;
727;SDS011;347;48.780;9.158;2023-07-02T06:19:34;12.97;;;11.77;;
727;SDS011;347;48.780;9.158;2023-07-02T06:22:01;14.30;;;12.23;;
727;SDS011;347;48.780;9.158;2023-07-02T06:24:27;12.67;;;11.67;;
727;SDS011;347;48.780;9.158;2023-07-02T06:26:52;12.03;;;11.10;;
727;SDS011;347;48.780;9.158;2023-07-02T06:29:18;14.40;;;13.07;;
727;SDS011;347;48.780;9.158;2023-07-02T06:31:43;14.23;;;13.13;;
727;SDS011;347;48.780;9.158;2023-07-02T06:34:09;14.77;;;13.70;;
727;SDS011;347;48.780;9.158;2023-07-02T06:36:35;13.60;;;12.43;;
727;SDS011;347;48.780;9.158;2023-07-02T06:39:00;13.27;;;12.37;;
727;SDS011;347;48.780;9.158;2023-07-02T06:41:26;14.03;;;12.63;;
727;SDS011;347;48.780;9.158;2023-07-02T06:43:51;15.30;;;13.97;;
727;SDS011;347;48.780;9.158;2023-07-02T06:46:17;16.93;;;15.27;;
727;SDS011;347;48.780;9.158;2023-07-02T06:48:42;16.00;;;14.70;;
727;SDS011;347;48.780;9.158;2023-07-02T06:51:08;14.17;;;12.90;;
727;SDS011;347;48.780;9.158;2023-07-02T06:53:34;15.30;;;13.80;;
727;SDS011;347;48.780;9.158;2023-07-02T06:56:01;15.57;;;14.27;;
727;SDS011;347;48.780;9.158;2023-07-02T06:58:27;16.83;;;15.30;;
727;SDS011;347;48.780;9.158;2023-07-02T07:00:53;16.23;;;14.90;;
727;SDS011;347;48.780;9.158;2023-07-02T07:03:18;14.40;;;13.40;;
727;SDS011;347;48.780;9.158;2023-07-02T07:05:44;15.23;;;14.03;;
727;SDS011;347;48.780;9.158;2023-07-02T07:08:09;16.83;;;15.40;;
727;SDS011;347;48.780;9.158;2023-07-02T07:10:35;14.80;;;13.50;;
727;SDS011;347;48.780;9.158;2023-07-02T07:13:01;18.00;;;16.60;;
727;SDS011;347;48.780;9.158;2023-07-02T07:15:29;17.30;;;15.90;;
727;SDS011;347;48.780;9.158;2023-07-02T07:17:57;17.13;;;15.53;;
727;SDS011;347;48.780;9.158;2023-07-02T07:20:22;18.23;;;16.90;;
727;SDS011;347;48.780;9.158;2023-07-02T07:22:48;17.77;;;16.17;;
727;SDS011;347;48.780;9.158;2023-07-02T07:25:14;22.10;;;17.90;;
727;SDS011;347;48.780;9.158;2023-07-02T07:27:39;18.93;;;17.33;;
727;SDS011;347;48.780;9.158;2023-07-02T07:30:05;18.43;;;16.87;;
727;SDS011;347;48.780;9.158;2023-07-02T07:32:31;19.53;;;17.60;;
727;SDS011;347;48.780;9.158;2023-07-02T07:34:56;18.90;;;17.17;;
727;SDS011;347;48.780;9.158;2023-07-02T07:37:22;19.40;;;17.60;;
727;SDS011;347;48.780;9.158;2023-07-02T07:39:50;21.03;;;19.30;;
727;SDS011;347;48.780;9.158;2023-07-02T07:42:15;17.97;;;16.43;;
727;SDS011;347;48.780;9.158;2023-07-02T07:44:42;18.10;;;16.70;;
727;SDS011;347;48.780;9.158;2023-07-02T07:47:09;20.40;;;18.20;;
727;SDS011;347;48.780;9.158;2023-07-02T07:49:35;19.37;;;17.57;;
727;SDS011;347;48.780;9.158;2023-07-02T07:52:00;19.67;;;17.77;;
727;SDS011;347;48.780;9.158;2023-07-02T07:54:26;20.43;;;18.53;;
727;SDS011;347;48.780;9.158;2023-07-02T07:56:51;20.97;;;18.97;;
727;SDS011;347;48.780;9.158;2023-07-02T07:59:17;19.93;;;17.97;;
727;SDS011;347;48.780;9.158;2023-07-02T08:01:42;19.93;;;18.27;;
727;SDS011;347;48.780;9.158;2023-07-02T08:04:08;21.17;;;18.90;;
727;SDS011;347;48.780;9.158;2023-07-02T08:06:33;20.23;;;18.33;;
727;SDS011;347;48.780;9.158;2023-07-02T08:08:59;19.17;;;17.13;;
727;SDS011;347;48.780;9.158;2023-07-02T08:11:25;18.83;;;17.13;;
727;SDS011;347;48.780;9.158;2023-07-02T08:13:50;18.40;;;16.80;;
727;SDS011;347;48.780;9.158;2023-07-02T08:16:16;19.33;;;17.53;;
727;SDS011;347;48.780;9.158;2023-07-02T08:18:41;20.80;;;18.87;;
727;SDS011;347;48.780;9.158;2023-07-02T08:21:07;19.50;;;17.70;;
727;SDS011;347;48.780;9.158;2023-07-02T08:23:32;18.57;;;17.07;;
727;SDS011;347;48.780;9.158;2023-07-02T08:25:58;17.77;;;16.27;;
727;SDS011;347;48.780;9.158;2023-07-02T08:28:23;20.23;;;18.13;;
727;SDS011;347;48.780;9.158;2023-07-02T08:30:49;19.70;;;17.90;;
727;SDS011;347;48.780;9.158;2023-07-02T08:33:14;18.23;;;16.70;;
727;SDS011;347;48.780;9.158;2023-07-02T08:35:40;20.17;;;18.10;;
727;SDS011;347;48.780;9.158;2023-07-02T08:38:05;18.53;;;16.77;;
727;SDS011;347;48.780;9.158;2023-07-02T08:40:33;17.77;;;16.27;;
727;SDS011;347;48.780;9.158;2023-07-02T08:42:58;20.37;;;18.53;;
727;SDS011;347;48.780;9.158;2023-07-02T08:45:24;19.30;;;17.60;;
727;SDS011;347;48.780;9.158;2023-07-02T08:47:50;18.63;;;16.97;;
727;SDS011;347;48.780;9.158;2023-07-02T08:50:18;18.47;;;16.67;;
727;SDS011;347;48.780;9.158;2023-07-02T08:52:44;18.90;;;17.00;;
727;SDS011;347;48.780;9.158;2023-07-02T08:55:10;16.50;;;14.87;;
727;SDS011;347;48.780;9.158;2023-07-02T08:57:35;17.70;;;16.20;;
727;SDS011;347;48.780;9.158;2023-07-02T09:00:07;16.40;;;15.03;;
727;SDS011;347;48.780;9.158;2023-07-02T09:02:34;16.20;;;14.60;;
727;SDS011;347;48.780;9.158;2023-07-02T09:05:00;16.80;;;15.30;;
727;SDS011;347;48.780;9.158;2023-07-02T09:07:26;15.87;;;14.47;;
727;SDS011;347;48.780;9.158;2023-07-02T09:09:52;16.20;;;14.60;;
727;SDS011;347;48.780;9.158;2023-07-02T09:12:31;16.93;;;14.53;;
727;SDS011;347;48.780;9.158;2023-07-02T09:14:58;15.97;;;14.60;;
727;SDS011;347;48.780;9.158;2023-07-02T09:17:29;16.03;;;14.63;;
727;SDS011;347;48.780;9.158;2023-07-02T09:19:56;16.83;;;15.23;;
727;SDS011;347;48.780;9.158;2023-07-02T09:22:25;15.20;;;13.80;;
727;SDS011;347;48.780;9.158;2023-07-02T09:24:55;12.80;;;11.70;;
727;SDS011;347;48.780;9.158;2023-07-02T09:27:32;13.23;;;11.90;;
727;SDS011;347;48.780;9.158;2023-07-02T09:30:04;16.23;;;14.70;;
727;SDS011;347;48.780;9.158;2023-07-02T09:32:41;15.40;;;13.83;;
727;SDS011;347;48.780;9.158;2023-07-02T09:35:07;13.43;;;11.90;;
727;SDS011;347;48.780;9.158;2023-07-02T09:37:33;12.90;;;11.57;;
727;SDS011;347;48.780;9.158;2023-07-02T09:39:59;12.97;;;11.60;;
727;SDS011;347;48.780;9.158;2023-07-02T09:42:26;14.90;;;11.80;;
727;SDS011;347;48.780;9.158;2023-07-02T09:44:54;14.37;;;11.23;;
727;SDS011;347;48.780;9.158;2023-07-02T09:47:23;11.73;;;10.60;;
727;SDS011;347;48.780;9.158;2023-07-02T09:49:55;13.20;;;11.77;;
727;SDS011;347;48.780;9.158;2023-07-02T09:52:25;12.60;;;11.40;;
727;SDS011;347;48.780;9.158;2023-07-02T09:54:52;14.30;;;10.37;;
727;SDS011;347;48.780;9.158;2023-07-02T09:57:18;13.50;;;12.10;;
727;SDS011;347;48.780;9.158;2023-07-02T09:59:44;13.80;;;10.77;;
727;SDS011;347;48.780;9.158;2023-07-02T10:02:10;17.30;;;11.13;;
727;SDS011;347;48.780;9.158;2023-07-02T10:04:40;12.13;;;10.93;;
727;SDS011;347;48.780;9.158;2023-07-02T10:07:12;13.60;;;12.20;;
727;SDS011;347;48.780;9.158;2023-07-02T10:09:50;12.70;;;11.40;;
727;SDS011;347;48.780;9.158;2023-07-02T10:14:49;12.43;;;11.07;;
727;SDS011;347;48.780;9.158;2023-07-02T10:17:29;11.73;;;10.50;;
727;SDS011;347;48.780;9.158;2023-07-02T10:19:57;12.10;;;10.90;;
727;SDS011;347;48.780;9.158;2023-07-02T10:22:24;12.40;;;11.17;;
727;SDS011;347;48.780;9.158;2023-07-02T10:24:51;14.30;;;11.50;;
727;SDS011;347;48.780;9.158;2023-07-02T10:27:18;16.70;;;13.00;;
727;SDS011;347;48.780;9.158;2023-07-02T10:29:49;16.90;;;12.87;;
727;SDS011;347;48.780;9.158;2023-07-02T10:32:25;13.67;;;12.17;;
727;SDS011;347;48.780;9.158;2023-07-02T10:34:52;17.30;;;11.77;;
727;SDS011;347;48.780;9.158;2023-07-02T10:37:17;12.30;;;11.00;;
727;SDS011;347;48.780;9.158;2023-07-02T10:39:43;14.03;;;12.63;;
727;SDS011;347;48.780;9.158;2023-07-02T10:42:09;14.20;;;11.27;;
727;SDS011;347;48.780;9.158;2023-07-02T10:44:46;13.10;;;11.80;;
727;SDS011;347;48.780;9.158;2023-07-02T10:47:13;13.17;;;11.90;;
727;SDS011;347;48.780;9.158;2023-07-02T10:49:38;14.47;;;11.97;;
727;SDS011;347;48.780;9.158;2023-07-02T10:52:04;12.87;;;11.27;;
727;SDS011;347;48.780;9.158;2023-07-02T10:57:09;13.93;;;11.80;;
727;SDS011;347;48.780;9.158;2023-07-02T10:59:37;13.10;;;11.80;;
727;SDS011;347;48.780;9.158;2023-07-02T11:02:03;20.37;;;15.30;;
727;SDS011;347;48.780;9.158;2023-07-02T11:04:29;10.27;;;9.37;;
727;SDS011;347;48.780;9.158;2023-07-02T11:06:56;11.67;;;10.47;;
727;SDS011;347;48.780;9.158;2023-07-02T11:09:22;12.43;;;10.90;;
727;SDS011;347;48.780;9.158;2023-07-02T11:11:55;13.63;;;11.57;;
727;SDS011;347;48.780;9.158;2023-07-02T11:16:56;14.30;;;10.73;;
727;SDS011;347;48.780;9.158;2023-07-02T11:19:23;12.97;;;10.30;;
727;SDS011;347;48.780;9.158;2023-07-02T11:21:50;13.13;;;11.20;;
727;SDS011;347;48.780;9.158;2023-07-02T11:24:25;13.87;;;12.40;;
727;SDS011;347;48.780;9.158;2023-07-02T11:26:59;15.67;;;13.07;;
727;SDS011;347;48.780;9.158;2023-07-02T11:29:26;13.50;;;11.90;;
727;SDS011;347;48.780;9.158;2023-07-02T11:31:53;15.70;;;12.87;;
727;SDS011;347;48.780;9.158;2023-07-02T11:34:20;13.43;;;11.90;;
727;SDS011;347;48.780;9.158;2023-07-02T11:36:47;12.20;;;11.17;;
727;SDS011;347;48.780;9.158;2023-07-02T11:39:14;14.03;;;11.73;;
727;SDS011;347;48.780;9.158;2023-07-02T11:41:41;11.83;;;10.63;;
727;SDS011;347;48.780;9.158;2023-07-02T11:44:08;14.27;;;12.30;;
727;SDS011;347;48.780;9.158;2023-07-02T11:46:34;11.40;;;10.33;;
727;SDS011;347;48.780;9.158;2023-07-02T11:49:00;15.40;;;11.27;;
727;SDS011;347;48.780;9.158;2023-07-02T11:51:26;14.83;;;10.97;;
727;SDS011;347;48.780;9.158;2023-07-02T11:53:51;14.03;;;11.77;;
727;SDS011;347;48.780;9.158;2023-07-02T11:56:17;14.67;;;11.50;;
727;SDS011;347;48.780;9.158;2023-07-02T11:58:43;11.13;;;9.83;;
727;SDS011;347;48.780;9.158;2023-07-02T12:01:08;15.17;;;12.73;;
727;SDS011;347;48.780;9.158;2023-07-02T12:03:34;12.87;;;10.37;;
727;SDS011;347;48.780;9.158;2023-07-02T12:05:59;12.57;;;11.27;;
727;SDS011;347;48.780;9.158;2023-07-02T12:08:25;14.43;;;10.80;;
727;SDS011;347;48.780;9.158;2023-07-02T12:10:51;12.17;;;10.40;;
727;SDS011;347;48.780;9.158;2023-07-02T12:13:17;14.03;;;12.30;;
727;SDS011;347;48.780;9.158;2023-07-02T12:15:42;15.80;;;11.97;;
727;SDS011;347;48.780;9.158;2023-07-02T12:18:08;13.77;;;12.23;;
727;SDS011;347;48.780;9.158;2023-07-02T12:20:34;14.00;;;11.10;;
727;SDS011;347;48.780;9.158;2023-07-02T12:22:59;12.67;;;10.60;;
727;SDS011;347;48.780;9.158;2023-07-02T12:25:25;12.17;;;10.97;;
727;SDS011;347;48.780;9.158;2023-07-02T12:27:50;16.70;;;12.67;;
727;SDS011;347;48.780;9.158;2023-07-02T12:30:16;17.03;;;12.97;;
727;SDS011;347;48.780;9.158;2023-07-02T12:32:43;13.87;;;11.60;;
727;SDS011;347;48.780;9.158;2023-07-02T12:35:09;16.50;;;12.90;;
727;SDS011;347;48.780;9.158;2023-07-02T12:37:35;13.80;;;10.70;;
727;SDS011;347;48.780;9.158;2023-07-02T12:40:00;15.00;;;12.80;;
727;SDS011;347;48.780;9.158;2023-07-02T12:42:26;14.90;;;12.47;;
727;SDS011;347;48.780;9.158;2023-07-02T12:44:52;13.33;;;11.97;;
727;SDS011;347;48.780;9.158;2023-07-02T12:47:17;14.30;;;12.17;;
727;SDS011;347;48.780;9.158;2023-07-02T12:49:43;11.93;;;10.73;;
727;SDS011;347;48.780;9.158;2023-07-02T12:52:08;13.00;;;11.70;;
727;SDS011;347;48.780;9.158;2023-07-02T12:54:34;16.67;;;13.40;;
727;SDS011;347;48.780;9.158;2023-07-02T12:56:59;15.47;;;11.17;;
727;SDS011;347;48.780;9.158;2023-07-02T12:59:25;13.33;;;10.80;;
727;SDS011;347;48.780;9.158;2023-07-02T13:01:50;14.63;;;11.07;;
727;SDS011;347;48.780;9.158;2023-07-02T13:04:16;14.70;;;11.23;;
727;SDS011;347;48.780;9.158;2023-07-02T13:06:42;16.13;;;10.90;;
727;SDS011;347;48.780;9.158;2023-07-02T13:09:09;12.93;;;11.37;;
727;SDS011;347;48.780;9.158;2023-07-02T13:11:35;14.10;;;12.00;;
727;SDS011;347;48.780;9.158;2023-07-02T13:14:01;14.00;;;11.40;;
727;SDS011;347;48.780;9.158;2023-07-02T13:16:26;16.50;;;11.73;;
727;SDS011;347;48.780;9.158;2023-07-02T13:18:52;12.37;;;10.97;;
727;SDS011;347;48.780;9.158;2023-07-02T13:21:20;13.10;;;11.70;;
727;SDS011;347;48.780;9.158;2023-07-02T13:23:46;13.97;;;11.03;;
727;SDS011;347;48.780;9.158;2023-07-02T13:26:11;12.30;;;11.00;;
727;SDS011;347;48.780;9.158;2023-07-02T13:28:36;13.30;;;11.30;;
727;SDS011;347;48.780;9.158;2023-07-02T13:31:02;12.53;;;10.47;;
727;SDS011;347;48.780;9.158;2023-07-02T13:33:28;11.37;;;10.20;;
727;SDS011;347;48.780;9.158;2023-07-02T13:35:55;14.77;;;11.37;;
727;SDS011;347;48.780;9.158;2023-07-02T13:38:21;13.77;;;12.30;;
727;SDS011;347;48.780;9.158;2023-07-02T13:40:47;15.53;;;12.60;;
727;SDS011;347;48.780;9.158;2023-07-02T13:43:12;15.87;;;11.67;;
727;SDS011;347;48.780;9.158;2023-07-02T13:45:38;12.43;;;11.13;;
727;SDS011;347;48.780;9.158;2023-07-02T13:48:03;12.60;;;11.30;;
727;SDS011;347;48.780;9.158;2023-07-02T13:50:30;12.40;;;10.63;;
727;SDS011;347;48.780;9.158;2023-07-02T13:52:55;13.70;;;11.40;;
727;SDS011;347;48.780;9.158;2023-07-02T13:55:21;12.80;;;11.27;;
727;SDS011;347;48.780;9.158;2023-07-02T13:57:52;23.60;;;11.60;;
727;SDS011;347;48.780;9.158;2023-07-02T14:00:19;12.83;;;10.70;;
727;SDS011;347;48.780;9.158;2023-07-02T14:02:45;14.50;;;11.30;;
727;SDS011;347;48.780;9.158;2023-07-02T14:05:10;13.57;;;11.47;;
727;SDS011;347;48.780;9.158;2023-07-02T14:07:36;13.43;;;11.40;;
727;SDS011;347;48.780;9.158;2023-07-02T14:10:02;16.57;;;10.47;;
727;SDS011;347;48.780;9.158;2023-07-02T14:12:28;12.90;;;10.33;;
727;SDS011;347;48.780;9.158;2023-07-02T14:14:53;15.30;;;11.33;;
727;SDS011;347;48.780;9.158;2023-07-02T14:17:19;14.20;;;11.93;;
727;SDS011;347;48.780;9.158;2023-07-02T14:19:44;23.03;;;11.37;;
727;SDS011;347;48.780;9.158;2023-07-02T14:22:10;17.10;;;12.37;;
727;SDS011;347;48.780;9.158;2023-07-02T14:24:35;12.03;;;10.70;;
727;SDS011;347;48.780;9.158;2023-07-02T14:27:01;12.37;;;10.87;;
727;SDS011;347;48.780;9.158;2023-07-02T14:29:27;12.90;;;11.50;;
727;SDS011;347;48.780;9.158;2023-07-02T14:31:52;13.00;;;10.07;;
727;SDS011;347;48.780;9.158;2023-07-02T14:34:18;12.63;;;11.30;;
727;SDS011;347;48.780;9.158;2023-07-02T14:36:43;12.60;;;11.13;;
727;SDS011;347;48.780;9.158;2023-07-02T14:39:09;12.57;;;10.90;;
727;SDS011;347;48.780;9.158;2023-07-02T14:41:34;12.07;;;10.73;;
727;SDS011;347;48.780;9.158;2023-07-02T14:44:01;15.20;;;11.53;;
727;SDS011;347;48.780;9.158;2023-07-02T14:46:27;17.63;;;11.90;;
727;SDS011;347;48.780;9.158;2023-07-02T14:48:52;14.90;;;11.10;;
727;SDS011;347;48.780;9.158;2023-07-02T14:51:18;13.27;;;11.10;;
727;SDS011;347;48.780;9.158;2023-07-02T14:53:44;14.30;;;11.17;;
727;SDS011;347;48.780;9.158;2023-07-02T14:56:09;13.87;;;11.57;;
727;SDS011;347;48.780;9.158;2023-07-02T14:58:35;12.77;;;11.47;;
727;SDS011;347;48.780;9.158;2023-07-02T15:01:00;11.43;;;10.20;;
727;SDS011;347;48.780;9.158;2023-07-02T15:03:26;13.27;;;11.73;;
727;SDS011;347;48.780;9.158;2023-07-02T15:05:53;14.27;;;10.77;;
727;SDS011;347;48.780;9.158;2023-07-02T15:08:19;15.00;;;11.80;;
727;SDS011;347;48.780;9.158;2023-07-02T15:10:46;12.93;;;11.63;;
727;SDS011;347;48.780;9.158;2023-07-02T15:13:13;12.47;;;10.70;;
727;SDS011;347;48.780;9.158;2023-07-02T15:15:39;14.57;;;11.77;;
727;SDS011;347;48.780;9.158;2023-07-02T15:18:05;14.70;;;11.47;;
727;SDS011;347;48.780;9.158;2023-07-02T15:20:32;12.50;;;11.20;;
727;SDS011;347;48.780;9.158;2023-07-02T15:22:59;12.73;;;10.83;;
727;SDS011;347;48.780;9.158;2023-07-02T15:25:24;12.17;;;10.80;;
727;SDS011;347;48.780;9.158;2023-07-02T15:27:50;18.00;;;11.93;;
727;SDS011;347;48.780;9.158;2023-07-02T15:30:15;14.87;;;11.70;;